Time;durP1;ratioP1;P1;durP2;ratioP2;P2;SDS_P1;SDS_P2;PMS_P1;PMS_P2;Temp;Humidity;BMP_temperature;BMP_pressure;BME280_temperature;BME280_humidity;BME280_pressure;Samples;Min_cycle;Max_cycle;Signal;HPM_P1;HPM_P2
2022/07/04 00:00:50;;;;;;;4.23;2.07;;;;;;;;;;5074246;28;20237;-51
2022/07/04 00:03:16;;;;;;;2.77;1.73;;;;;;;;;;5087751;28;20159;-55
2022/07/04 00:05:42;;;;;;;3.57;1.80;;;;;;;;;;5087133;28;20310;-52
2022/07/04 00:08:08;;;;;;;1.87;1.60;;;;;;;;;;5087122;28;20163;-50
2022/07/04 00:10:34;;;;;;;2.00;1.90;;;;;;;;;;5087205;28;20660;-50
2022/07/04 00:13:01;;;;;;;6.30;2.93;;;;;;;;;;5087564;28;20224;-50
2022/07/04 00:15:27;;;;;;;2.90;1.70;;;;;;;;;;5049825;28;20264;-51
2022/07/04 00:17:53;;;;;;;2.47;1.90;;;;;;;;;;5067650;28;20619;-51
2022/07/04 00:20:19;;;;;;;2.00;1.80;;;;;;;;;;5059936;28;20231;-51
2022/07/04 00:22:46;;;;;;;3.47;1.70;;;;;;;;;;5045380;28;20168;-50
2022/07/04 00:25:12;;;;;;;5.07;1.73;;;;;;;;;;5061833;28;20243;-50
2022/07/04 00:27:39;;;;;;;1.70;1.60;;;;;;;;;;5087227;28;20158;-51
2022/07/04 00:30:05;;;;;;;1.90;1.60;;;;;;;;;;5062139;28;20669;-51
2022/07/04 00:32:32;;;;;;;2.33;1.53;;;;;;;;;;5066746;28;20655;-50
2022/07/04 00:34:58;;;;;;;4.97;1.90;;;;;;;;;;5050484;28;20189;-50
2022/07/04 00:37:24;;;;;;;2.90;1.83;;;;;;;;;;5065531;28;20712;-50
2022/07/04 00:39:51;;;;;;;2.57;1.90;;;;;;;;;;5066716;28;20346;-50
2022/07/04 00:42:17;;;;;;;2.87;1.73;;;;;;;;;;5085900;28;20167;-50
2022/07/04 00:44:43;;;;;;;1.93;1.70;;;;;;;;;;5082894;28;20180;-56
2022/07/04 00:47:09;;;;;;;2.23;1.73;;;;;;;;;;5066916;28;20180;-50
2022/07/04 00:49:35;;;;;;;2.20;1.90;;;;;;;;;;5048384;28;20248;-51
2022/07/04 00:52:03;;;;;;;1.97;1.73;;;;;;;;;;5066032;28;20257;-50
2022/07/04 00:54:31;;;;;;;2.93;1.73;;;;;;;;;;5048067;28;20164;-51
2022/07/04 00:56:57;;;;;;;1.70;1.60;;;;;;;;;;5031576;28;20604;-50
2022/07/04 00:59:24;;;;;;;2.70;1.80;;;;;;;;;;5048354;28;20211;-52
2022/07/04 01:01:51;;;;;;;2.67;1.50;;;;;;;;;;5048001;28;20174;-50
2022/07/04 01:04:26;;;;;;;2.57;2.03;;;;;;;;;;5048811;28;20172;-51
2022/07/04 01:06:53;;;;;;;1.60;1.50;;;;;;;;;;5046099;28;20479;-51
2022/07/04 01:09:19;;;;;;;2.73;1.60;;;;;;;;;;5028117;28;20189;-50
2022/07/04 01:11:49;;;;;;;2.33;1.40;;;;;;;;;;5047486;28;20289;-50
2022/07/04 01:14:15;;;;;;;3.33;2.00;;;;;;;;;;5066981;28;20244;-51
2022/07/04 01:16:41;;;;;;;2.23;1.90;;;;;;;;;;5047693;28;20257;-50
2022/07/04 01:19:07;;;;;;;2.30;1.73;;;;;;;;;;5066896;28;20204;-50
2022/07/04 01:21:33;;;;;;;3.50;1.63;;;;;;;;;;5049707;28;20225;-50
2022/07/04 01:24:00;;;;;;;2.73;1.57;;;;;;;;;;5027394;28;20635;-50
2022/07/04 01:26:27;;;;;;;2.87;2.00;;;;;;;;;;5044046;28;20175;-51
2022/07/04 01:28:54;;;;;;;1.60;1.50;;;;;;;;;;5028142;28;20187;-50
2022/07/04 01:31:20;;;;;;;2.27;1.80;;;;;;;;;;5046274;28;20175;-50
2022/07/04 01:33:46;;;;;;;3.93;1.47;;;;;;;;;;5046630;28;20262;-51
2022/07/04 01:36:12;;;;;;;2.90;1.73;;;;;;;;;;5049970;28;20174;-50
2022/07/04 01:38:38;;;;;;;1.67;1.57;;;;;;;;;;5049503;28;20189;-50
2022/07/04 01:41:04;;;;;;;1.87;1.77;;;;;;;;;;5032402;28;20552;-50
2022/07/04 01:43:30;;;;;;;2.00;1.90;;;;;;;;;;5050268;28;20176;-50
2022/07/04 01:45:57;;;;;;;1.80;1.63;;;;;;;;;;5050200;28;20208;-51
2022/07/04 01:48:23;;;;;;;2.13;1.80;;;;;;;;;;5049887;28;20204;-57
2022/07/04 01:50:49;;;;;;;1.70;1.60;;;;;;;;;;5045779;28;20236;-50
2022/07/04 01:53:15;;;;;;;3.67;1.90;;;;;;;;;;5029375;28;20201;-56
2022/07/04 01:55:41;;;;;;;2.40;2.20;;;;;;;;;;5023670;28;20264;-53
2022/07/04 01:58:08;;;;;;;2.93;1.93;;;;;;;;;;5032072;28;20184;-50
2022/07/04 02:03:19;;;;;;;5.03;4.73;;;;;;;;;;5049935;28;20219;-51
2022/07/04 02:05:45;;;;;;;2.10;1.90;;;;;;;;;;5031621;28;20185;-51
2022/07/04 02:08:14;;;;;;;2.00;1.90;;;;;;;;;;5030795;28;20180;-51
2022/07/04 02:10:40;;;;;;;3.70;2.47;;;;;;;;;;5049463;28;20184;-50
2022/07/04 02:13:06;;;;;;;1.63;1.50;;;;;;;;;;5049475;28;20295;-51
2022/07/04 02:15:40;;;;;;;3.43;1.60;;;;;;;;;;5049120;28;20194;-51
2022/07/04 02:18:08;;;;;;;2.23;1.73;;;;;;;;;;5049829;28;20157;-50
2022/07/04 02:20:35;;;;;;;4.80;2.00;;;;;;;;;;5040656;28;20220;-50
2022/07/04 02:23:01;;;;;;;2.10;1.90;;;;;;;;;;5068150;28;20211;-51
2022/07/04 02:25:27;;;;;;;1.93;1.80;;;;;;;;;;5069868;28;20184;-51
2022/07/04 02:27:53;;;;;;;1.97;1.87;;;;;;;;;;5051046;28;20204;-51
2022/07/04 02:30:19;;;;;;;3.13;1.70;;;;;;;;;;5069454;28;20565;-50
2022/07/04 02:32:46;;;;;;;1.83;1.73;;;;;;;;;;5069516;28;20209;-51
2022/07/04 02:35:12;;;;;;;2.10;1.80;;;;;;;;;;5068935;28;20512;-51
2022/07/04 02:37:38;;;;;;;3.47;2.03;;;;;;;;;;5049916;28;20552;-52
2022/07/04 02:40:05;;;;;;;2.90;1.90;;;;;;;;;;5056953;28;20215;-51
2022/07/04 02:42:33;;;;;;;2.00;1.80;;;;;;;;;;5089670;28;20152;-52
2022/07/04 02:45:00;;;;;;;3.73;2.00;;;;;;;;;;5070420;28;20622;-52
2022/07/04 02:47:26;;;;;;;2.63;1.80;;;;;;;;;;5070559;28;20574;-52
2022/07/04 02:49:52;;;;;;;5.03;1.90;;;;;;;;;;5089082;28;20176;-65
2022/07/04 02:52:19;;;;;;;5.67;5.27;;;;;;;;;;5069878;28;20510;-51
2022/07/04 02:54:46;;;;;;;2.23;1.93;;;;;;;;;;5088785;28;20545;-51
2022/07/04 02:57:12;;;;;;;2.13;1.70;;;;;;;;;;5089078;28;20239;-51
2022/07/04 02:59:39;;;;;;;1.93;1.83;;;;;;;;;;5086552;28;20200;-51
2022/07/04 03:02:08;;;;;;;2.00;1.90;;;;;;;;;;5070146;28;20172;-51
2022/07/04 03:04:41;;;;;;;2.90;2.00;;;;;;;;;;5088672;28;20167;-51
2022/07/04 03:07:07;;;;;;;3.83;2.10;;;;;;;;;;5087391;28;20148;-51
2022/07/04 03:09:34;;;;;;;2.40;2.10;;;;;;;;;;5088951;28;20168;-51
2022/07/04 03:12:00;;;;;;;1.97;1.87;;;;;;;;;;5089149;28;20626;-51
2022/07/04 03:14:26;;;;;;;2.33;2.10;;;;;;;;;;5088738;28;20156;-51
2022/07/04 03:16:52;;;;;;;7.90;7.50;;;;;;;;;;5088806;28;20186;-51
2022/07/04 03:19:18;;;;;;;2.00;1.90;;;;;;;;;;5070715;28;20227;-51
2022/07/04 03:21:44;;;;;;;1.80;1.70;;;;;;;;;;5088001;27;20235;-51
2022/07/04 03:24:11;;;;;;;2.97;2.10;;;;;;;;;;5086477;28;20766;-51
2022/07/04 03:26:37;;;;;;;2.63;1.93;;;;;;;;;;5068498;28;20598;-50
2022/07/04 03:29:03;;;;;;;3.37;2.40;;;;;;;;;;5050355;28;20329;-51
2022/07/04 03:31:30;;;;;;;4.33;4.13;;;;;;;;;;5068256;28;20168;-51
2022/07/04 03:33:56;;;;;;;2.30;2.10;;;;;;;;;;5068625;28;20683;-54
2022/07/04 03:36:22;;;;;;;3.23;2.50;;;;;;;;;;5068121;28;20551;-52
2022/07/04 03:38:49;;;;;;;2.07;1.90;;;;;;;;;;5067432;28;20579;-50
2022/07/04 03:41:15;;;;;;;3.33;2.27;;;;;;;;;;5065464;28;20179;-50
2022/07/04 03:43:41;;;;;;;2.30;2.00;;;;;;;;;;5070123;28;20168;-50
2022/07/04 03:46:07;;;;;;;2.67;2.47;;;;;;;;;;5072977;28;20658;-50
2022/07/04 03:48:34;;;;;;;2.80;2.30;;;;;;;;;;5068171;28;20152;-50
2022/07/04 03:51:00;;;;;;;3.90;2.40;;;;;;;;;;5081748;28;20195;-50
2022/07/04 03:53:26;;;;;;;2.97;2.40;;;;;;;;;;5087460;28;20213;-50
2022/07/04 03:55:52;;;;;;;2.67;2.43;;;;;;;;;;5087443;28;20686;-50
2022/07/04 03:58:18;;;;;;;2.47;2.27;;;;;;;;;;5068735;28;20176;-50
2022/07/04 04:00:45;;;;;;;2.43;2.23;;;;;;;;;;5058045;28;20959;-50
2022/07/04 04:05:56;;;;;;;2.30;2.10;;;;;;;;;;5067884;28;20235;-50
2022/07/04 04:08:23;;;;;;;3.07;2.20;;;;;;;;;;5066619;28;20161;-50
2022/07/04 04:10:56;;;;;;;2.40;2.20;;;;;;;;;;5049574;28;20646;-50
2022/07/04 04:13:22;;;;;;;2.90;2.10;;;;;;;;;;5033574;28;20227;-50
2022/07/04 04:15:48;;;;;;;4.43;2.60;;;;;;;;;;5067439;28;20196;-50
2022/07/04 04:18:14;;;;;;;2.73;2.20;;;;;;;;;;5067701;28;20219;-51
2022/07/04 04:20:40;;;;;;;2.43;2.27;;;;;;;;;;5068735;27;20268;-51
2022/07/04 04:23:07;;;;;;;3.53;3.17;;;;;;;;;;5048430;28;20582;-56
2022/07/04 04:25:33;;;;;;;2.40;2.20;;;;;;;;;;5059169;28;20179;-51
2022/07/04 04:27:59;;;;;;;2.30;2.00;;;;;;;;;;5087904;28;20184;-51
2022/07/04 04:30:25;;;;;;;2.87;2.60;;;;;;;;;;5078011;28;20751;-49
2022/07/04 04:32:51;;;;;;;3.87;2.10;;;;;;;;;;5048773;28;20604;-49
2022/07/04 04:35:19;;;;;;;4.27;2.47;;;;;;;;;;5066922;28;20542;-49
2022/07/04 04:37:45;;;;;;;2.13;2.03;;;;;;;;;;5065677;28;20187;-50
2022/07/04 04:40:12;;;;;;;2.13;1.93;;;;;;;;;;5049184;28;20209;-50
2022/07/04 04:42:40;;;;;;;3.27;2.63;;;;;;;;;;5067343;28;20255;-49
2022/07/04 04:45:07;;;;;;;2.57;2.23;;;;;;;;;;5067267;28;20179;-50
2022/07/04 04:47:33;;;;;;;2.50;2.17;;;;;;;;;;5032465;28;20172;-49
2022/07/04 04:50:00;;;;;;;2.57;2.37;;;;;;;;;;5066624;28;20211;-50
2022/07/04 04:52:26;;;;;;;3.80;3.20;;;;;;;;;;5047455;28;20216;-50
2022/07/04 04:54:52;;;;;;;3.43;2.10;;;;;;;;;;5067157;28;20218;-50
2022/07/04 04:57:18;;;;;;;3.07;2.80;;;;;;;;;;5067036;28;20620;-51
2022/07/04 04:59:44;;;;;;;3.50;3.20;;;;;;;;;;5066823;28;20204;-51
2022/07/04 05:02:11;;;;;;;4.50;4.10;;;;;;;;;;5066873;28;20162;-51
2022/07/04 05:04:37;;;;;;;3.33;2.20;;;;;;;;;;5048228;28;20538;-50
2022/07/04 05:07:03;;;;;;;2.70;2.50;;;;;;;;;;5065775;28;20164;-52
2022/07/04 05:09:29;;;;;;;4.43;2.60;;;;;;;;;;5066794;28;20279;-51
2022/07/04 05:11:56;;;;;;;4.97;2.67;;;;;;;;;;5066542;28;20573;-52
2022/07/04 05:14:22;;;;;;;2.67;2.47;;;;;;;;;;5066371;28;20187;-53
2022/07/04 05:16:48;;;;;;;3.23;2.83;;;;;;;;;;5066763;28;20543;-51
2022/07/04 05:19:14;;;;;;;2.80;2.60;;;;;;;;;;5066635;28;20188;-51
2022/07/04 05:22:05;;;;;;;3.90;2.60;;;;;;;;;;5066450;27;20702;-52
2022/07/04 05:24:31;;;;;;;3.80;2.80;;;;;;;;;;5065701;28;20184;-52
2022/07/04 05:26:57;;;;;;;2.93;2.73;;;;;;;;;;5066147;28;20293;-51
2022/07/04 05:29:23;;;;;;;2.97;2.40;;;;;;;;;;5065938;28;20169;-52
2022/07/04 05:31:49;;;;;;;4.23;2.70;;;;;;;;;;5066336;28;20169;-51
2022/07/04 05:34:18;;;;;;;2.90;2.50;;;;;;;;;;5048078;28;20267;-49
2022/07/04 05:36:44;;;;;;;3.53;3.23;;;;;;;;;;5065455;28;20556;-50
2022/07/04 05:39:10;;;;;;;3.60;2.90;;;;;;;;;;5065961;28;20211;-50
2022/07/04 05:41:36;;;;;;;3.57;3.10;;;;;;;;;;5047698;28;20582;-49
2022/07/04 05:44:03;;;;;;;4.07;2.77;;;;;;;;;;5066115;28;20165;-50
2022/07/04 05:46:29;;;;;;;4.00;3.33;;;;;;;;;;5047845;28;20662;-49
2022/07/04 05:48:55;;;;;;;3.73;3.00;;;;;;;;;;5066316;28;20233;-49
2022/07/04 05:51:21;;;;;;;3.40;3.10;;;;;;;;;;5065254;28;20628;-50
2022/07/04 05:53:47;;;;;;;3.30;3.03;;;;;;;;;;5064695;28;20180;-50
2022/07/04 05:56:13;;;;;;;4.97;3.57;;;;;;;;;;5046788;28;20207;-49
2022/07/04 05:58:40;;;;;;;4.70;3.30;;;;;;;;;;5066414;28;20382;-51
2022/07/04 06:01:07;;;;;;;3.80;3.03;;;;;;;;;;5047736;28;20234;-50
2022/07/04 06:03:36;;;;;;;3.53;3.23;;;;;;;;;;5066245;28;20177;-52
2022/07/04 06:06:03;;;;;;;4.23;3.27;;;;;;;;;;5058365;28;20177;-62
2022/07/04 06:08:29;;;;;;;5.93;3.57;;;;;;;;;;5064642;28;20663;-51
2022/07/04 06:10:56;;;;;;;3.20;2.87;;;;;;;;;;5054399;28;20584;-51
2022/07/04 06:13:22;;;;;;;5.43;3.20;;;;;;;;;;5065692;28;20630;-51
2022/07/04 06:15:49;;;;;;;5.47;3.87;;;;;;;;;;5064820;28;20587;-52
2022/07/04 06:18:15;;;;;;;5.40;3.60;;;;;;;;;;5064219;28;20174;-51
2022/07/04 06:20:41;;;;;;;9.07;3.97;;;;;;;;;;5057180;28;20597;-50
2022/07/04 06:23:08;;;;;;;4.47;4.07;;;;;;;;;;5087341;28;20175;-50
2022/07/04 06:25:34;;;;;;;4.63;3.60;;;;;;;;;;5089966;28;20191;-50
2022/07/04 06:28:01;;;;;;;4.03;3.40;;;;;;;;;;5090046;28;20615;-50
2022/07/04 06:30:27;;;;;;;5.63;3.07;;;;;;;;;;5089320;28;20214;-50
2022/07/04 06:32:57;;;;;;;4.73;3.13;;;;;;;;;;5071184;28;20176;-51
2022/07/04 06:38:10;;;;;;;5.23;3.03;;;;;;;;;;5088940;28;20225;-53
2022/07/04 06:40:37;;;;;;;3.77;2.73;;;;;;;;;;5089302;28;20302;-53
2022/07/04 06:43:03;;;;;;;5.20;3.57;;;;;;;;;;5054802;28;20176;-53
2022/07/04 06:45:30;;;;;;;8.00;3.23;;;;;;;;;;5088668;28;20271;-52
2022/07/04 06:47:56;;;;;;;6.07;2.73;;;;;;;;;;5089794;28;20786;-51
2022/07/04 06:50:22;;;;;;;4.63;2.87;;;;;;;;;;5088707;28;20640;-49
2022/07/04 06:52:49;;;;;;;4.43;2.50;;;;;;;;;;5087509;28;20290;-50
2022/07/04 06:58:00;;;;;;;2.53;2.33;;;;;;;;;;5088530;28;20755;-51
2022/07/04 07:00:26;;;;;;;2.70;2.17;;;;;;;;;;5061267;28;20292;-56
2022/07/04 07:02:52;;;;;;;3.67;1.90;;;;;;;;;;5068549;28;20625;-50
2022/07/04 07:05:18;;;;;;;6.10;2.50;;;;;;;;;;5058377;28;20270;-50
2022/07/04 07:07:45;;;;;;;2.63;2.20;;;;;;;;;;5088067;28;20164;-51
2022/07/04 07:10:11;;;;;;;4.73;2.83;;;;;;;;;;5064021;28;20689;-50
2022/07/04 07:12:37;;;;;;;2.20;2.00;;;;;;;;;;5068346;28;20164;-50
2022/07/04 07:15:03;;;;;;;5.57;2.10;;;;;;;;;;5069536;28;20195;-52
2022/07/04 07:17:29;;;;;;;5.43;2.40;;;;;;;;;;5050179;28;20185;-51
2022/07/04 07:19:56;;;;;;;3.80;1.90;;;;;;;;;;5068995;28;20197;-51
2022/07/04 07:22:22;;;;;;;4.20;2.20;;;;;;;;;;5050470;27;20223;-50
2022/07/04 07:24:48;;;;;;;2.73;2.40;;;;;;;;;;5048812;28;20797;-50
2022/07/04 07:27:14;;;;;;;5.03;2.47;;;;;;;;;;5048471;28;20173;-50
2022/07/04 07:29:40;;;;;;;3.10;2.00;;;;;;;;;;5030470;28;20191;-50
2022/07/04 07:32:07;;;;;;;2.77;2.10;;;;;;;;;;5048896;28;20205;-50
2022/07/04 07:34:33;;;;;;;4.83;2.43;;;;;;;;;;5048318;28;20511;-51
2022/07/04 07:36:59;;;;;;;2.10;1.90;;;;;;;;;;5048036;28;20169;-51
2022/07/04 07:39:26;;;;;;;2.60;1.97;;;;;;;;;;5047745;28;20204;-50
2022/07/04 07:41:52;;;;;;;5.73;2.20;;;;;;;;;;5030133;28;20184;-50
2022/07/04 07:44:18;;;;;;;4.67;2.00;;;;;;;;;;5047474;28;20153;-49
2022/07/04 07:46:44;;;;;;;2.37;1.93;;;;;;;;;;5029725;28;20193;-50
2022/07/04 07:49:10;;;;;;;4.70;2.10;;;;;;;;;;5013938;28;20173;-50
2022/07/04 07:51:37;;;;;;;2.20;1.73;;;;;;;;;;5029080;28;20686;-50
2022/07/04 07:54:03;;;;;;;2.70;2.20;;;;;;;;;;5047818;28;20185;-50
2022/07/04 07:56:29;;;;;;;3.73;2.13;;;;;;;;;;5048162;28;20237;-52
2022/07/04 07:58:56;;;;;;;5.60;2.10;;;;;;;;;;5029174;28;20209;-50
2022/07/04 08:01:22;;;;;;;5.47;2.00;;;;;;;;;;5028836;28;20646;-52
2022/07/04 08:06:33;;;;;;;3.47;2.20;;;;;;;;;;5047498;28;20191;-51
2022/07/04 08:09:05;;;;;;;2.50;1.90;;;;;;;;;;5028895;28;20251;-51
2022/07/04 08:11:31;;;;;;;3.73;2.33;;;;;;;;;;5047270;28;20745;-50
2022/07/04 08:13:57;;;;;;;5.63;2.63;;;;;;;;;;5040797;28;20181;-50
2022/07/04 08:16:23;;;;;;;3.67;2.17;;;;;;;;;;5044581;28;20179;-50
2022/07/04 08:18:49;;;;;;;3.00;1.97;;;;;;;;;;5047496;28;20197;-51
2022/07/04 08:21:16;;;;;;;2.50;2.07;;;;;;;;;;5064404;28;20228;-50
2022/07/04 08:23:42;;;;;;;6.10;2.25;;;;;;;;;;5068085;28;20470;-52
2022/07/04 08:26:08;;;;;;;3.20;2.13;;;;;;;;;;5087748;28;20219;-50
2022/07/04 08:28:35;;;;;;;3.13;2.00;;;;;;;;;;5087484;28;20266;-52
2022/07/04 08:31:01;;;;;;;2.27;1.97;;;;;;;;;;5087590;28;20547;-51
2022/07/04 08:33:27;;;;;;;3.40;1.97;;;;;;;;;;5069177;28;20611;-51
2022/07/04 08:35:53;;;;;;;7.07;2.23;;;;;;;;;;5087787;28;20164;-51
2022/07/04 08:38:20;;;;;;;1.70;1.60;;;;;;;;;;5085277;28;20156;-52
2022/07/04 08:40:48;;;;;;;3.87;2.30;;;;;;;;;;5086718;28;20169;-51
2022/07/04 08:43:15;;;;;;;5.17;2.50;;;;;;;;;;5087453;28;20191;-51
2022/07/04 08:45:42;;;;;;;4.67;2.37;;;;;;;;;;5086734;28;20197;-50
2022/07/04 08:48:09;;;;;;;5.10;2.57;;;;;;;;;;5086635;28;20214;-50
2022/07/04 08:50:35;;;;;;;2.87;2.20;;;;;;;;;;5048413;28;20702;-51
2022/07/04 08:53:10;;;;;;;4.17;2.27;;;;;;;;;;5065210;28;20163;-50
2022/07/04 08:58:30;;;;;;;3.70;2.53;;;;;;;;;;5086533;28;20178;-51
2022/07/04 09:01:01;;;;;;;3.87;2.10;;;;;;;;;;5085544;28;20216;-51
2022/07/04 09:03:29;;;;;;;3.13;1.97;;;;;;;;;;5084710;28;20244;-51
2022/07/04 09:05:55;;;;;;;2.97;1.77;;;;;;;;;;5066420;28;20718;-52
2022/07/04 09:08:21;;;;;;;4.67;2.10;;;;;;;;;;5084285;28;20184;-51
2022/07/04 09:10:49;;;;;;;2.63;1.90;;;;;;;;;;5084988;28;20168;-51
2022/07/04 09:13:17;;;;;;;4.60;2.23;;;;;;;;;;5085238;28;20169;-51
2022/07/04 09:15:44;;;;;;;4.10;2.00;;;;;;;;;;5086998;28;20214;-50
2022/07/04 09:18:31;;;;;;;3.13;2.07;;;;;;;;;;5086692;28;20260;-51
2022/07/04 09:20:59;;;;;;;1.83;1.70;;;;;;;;;;5085902;28;20431;-50
2022/07/04 09:23:30;;;;;;;2.97;2.63;;;;;;;;;;5067192;28;20260;-50
2022/07/04 09:26:15;;;;;;;2.70;1.80;;;;;;;;;;5087228;28;20166;-49
2022/07/04 09:28:59;;;;;;;3.10;2.10;;;;;;;;;;5087066;28;20160;-50
2022/07/04 09:31:30;;;;;;;3.93;2.20;;;;;;;;;;5086647;28;20192;-51
2022/07/04 09:33:58;;;;;;;2.13;1.93;;;;;;;;;;5068220;28;20174;-51
2022/07/04 09:36:25;;;;;;;2.70;2.00;;;;;;;;;;5086334;28;20476;-51
2022/07/04 09:39:14;;;;;;;3.97;2.23;;;;;;;;;;5073426;28;20713;-49
2022/07/04 09:41:59;;;;;;;3.03;2.43;;;;;;;;;;5085684;28;20163;-50
2022/07/04 09:44:43;;;;;;;3.67;2.00;;;;;;;;;;5086853;28;20176;-49
2022/07/04 09:47:23;;;;;;;3.80;2.70;;;;;;;;;;5068685;28;20177;-50
2022/07/04 09:50:02;;;;;;;2.70;2.10;;;;;;;;;;5086613;28;20235;-50
2022/07/04 09:52:29;;;;;;;3.10;2.70;;;;;;;;;;5084818;28;20161;-50
2022/07/04 09:55:00;;;;;;;2.23;2.00;;;;;;;;;;5086615;28;20235;-50
2022/07/04 09:57:26;;;;;;;3.50;2.03;;;;;;;;;;5090653;28;20182;-49
2022/07/04 09:59:52;;;;;;;2.67;2.00;;;;;;;;;;5090504;28;20282;-49
2022/07/04 10:02:22;;;;;;;5.17;2.43;;;;;;;;;;5089822;28;20159;-50
2022/07/04 10:04:51;;;;;;;7.10;1.90;;;;;;;;;;5090815;28;20666;-50
2022/07/04 10:07:30;;;;;;;3.40;2.17;;;;;;;;;;5070640;28;20167;-50
2022/07/04 10:09:56;;;;;;;3.83;2.20;;;;;;;;;;5052026;28;20190;-50
2022/07/04 10:12:26;;;;;;;4.23;2.27;;;;;;;;;;5069762;28;20153;-50
2022/07/04 10:14:54;;;;;;;2.33;2.10;;;;;;;;;;5084201;28;20185;-51
2022/07/04 10:17:20;;;;;;;4.37;2.33;;;;;;;;;;5090113;28;20259;-51
2022/07/04 10:19:50;;;;;;;2.67;1.70;;;;;;;;;;5090041;28;20195;-50
2022/07/04 10:22:18;;;;;;;3.13;2.00;;;;;;;;;;5066192;28;20666;-56
2022/07/04 10:24:44;;;;;;;3.03;2.10;;;;;;;;;;5051505;28;20180;-51
2022/07/04 10:27:11;;;;;;;1.87;1.77;;;;;;;;;;5069392;28;20344;-51
2022/07/04 10:29:37;;;;;;;2.60;1.80;;;;;;;;;;5050873;28;20169;-51
2022/07/04 10:32:06;;;;;;;3.73;1.77;;;;;;;;;;5069141;28;20693;-52
2022/07/04 10:34:39;;;;;;;2.63;1.67;;;;;;;;;;5066513;28;20200;-51
2022/07/04 10:37:05;;;;;;;3.07;1.87;;;;;;;;;;5064846;28;20156;-51
2022/07/04 10:39:31;;;;;;;2.47;1.70;;;;;;;;;;5068866;28;20650;-51
2022/07/04 10:41:58;;;;;;;3.53;2.20;;;;;;;;;;5069217;28;20169;-51
2022/07/04 10:44:26;;;;;;;2.63;2.03;;;;;;;;;;5068922;28;20151;-51
2022/07/04 10:46:58;;;;;;;2.60;1.80;;;;;;;;;;5068933;28;20264;-50
2022/07/04 10:49:25;;;;;;;3.07;2.07;;;;;;;;;;5068702;28;20241;-50
2022/07/04 10:51:53;;;;;;;2.50;1.90;;;;;;;;;;5067794;28;20270;-49
2022/07/04 10:54:32;;;;;;;2.43;1.53;;;;;;;;;;5068789;28;20252;-50
2022/07/04 10:57:14;;;;;;;3.43;2.50;;;;;;;;;;5050620;28;20326;-52
2022/07/04 10:59:41;;;;;;;1.80;1.70;;;;;;;;;;5049706;28;20209;-52
2022/07/04 11:02:08;;;;;;;2.43;2.23;;;;;;;;;;5068455;28;20157;-52
2022/07/04 11:04:49;;;;;;;3.87;2.10;;;;;;;;;;5068236;28;20497;-51
2022/07/04 11:07:16;;;;;;;2.40;2.20;;;;;;;;;;5067104;28;20381;-52
2022/07/04 11:09:43;;;;;;;2.73;2.00;;;;;;;;;;5069682;28;20213;-52
2022/07/04 11:12:09;;;;;;;2.10;1.90;;;;;;;;;;5068495;28;20178;-51
2022/07/04 11:14:45;;;;;;;1.90;1.80;;;;;;;;;;5088589;28;20172;-52
2022/07/04 11:17:22;;;;;;;2.83;2.30;;;;;;;;;;5088764;28;20192;-52
2022/07/04 11:19:48;;;;;;;2.10;1.90;;;;;;;;;;5066410;28;20211;-53
2022/07/04 11:22:22;;;;;;;2.20;1.87;;;;;;;;;;5068480;27;20652;-50
2022/07/04 11:24:49;;;;;;;3.70;2.27;;;;;;;;;;5068711;28;20691;-51
2022/07/04 11:27:15;;;;;;;3.17;2.23;;;;;;;;;;5049551;28;20204;-55
2022/07/04 11:29:51;;;;;;;3.97;1.97;;;;;;;;;;5068305;28;20272;-52
2022/07/04 11:32:17;;;;;;;1.93;1.63;;;;;;;;;;5068307;28;20585;-55
2022/07/04 11:34:44;;;;;;;1.80;1.60;;;;;;;;;;5067792;28;20192;-52
2022/07/04 11:37:10;;;;;;;3.13;2.07;;;;;;;;;;5048297;28;20299;-51
2022/07/04 11:39:36;;;;;;;5.10;2.20;;;;;;;;;;5068033;28;20208;-52
2022/07/04 11:45:04;;;;;;;2.20;2.00;;;;;;;;;;5068104;28;20184;-51
2022/07/04 11:47:40;;;;;;;3.07;2.00;;;;;;;;;;5069901;28;20168;-51
2022/07/04 11:50:11;;;;;;;3.60;2.20;;;;;;;;;;5081726;28;20666;-53
2022/07/04 11:52:37;;;;;;;3.93;1.80;;;;;;;;;;5066692;28;20161;-51
2022/07/04 11:55:04;;;;;;;2.20;2.10;;;;;;;;;;5067321;28;20697;-51
2022/07/04 11:57:34;;;;;;;3.70;3.33;;;;;;;;;;5069559;28;20643;-51
2022/07/04 12:00:00;;;;;;;2.43;1.73;;;;;;;;;;5082402;28;20199;-51
2022/07/04 12:02:27;;;;;;;3.03;1.67;;;;;;;;;;5068598;28;20669;-51
2022/07/04 12:04:54;;;;;;;2.23;1.90;;;;;;;;;;5067606;28;20267;-52
2022/07/04 12:07:21;;;;;;;2.43;1.60;;;;;;;;;;5066527;28;20256;-51
2022/07/04 12:09:48;;;;;;;1.90;1.70;;;;;;;;;;5048726;28;20242;-51
2022/07/04 12:12:16;;;;;;;1.80;1.70;;;;;;;;;;5049242;28;20180;-51
2022/07/04 12:14:57;;;;;;;3.33;1.80;;;;;;;;;;5066705;28;20212;-51
2022/07/04 12:17:23;;;;;;;3.80;2.10;;;;;;;;;;5048798;28;20181;-50
2022/07/04 12:20:00;;;;;;;2.10;1.90;;;;;;;;;;5047805;28;20204;-50
2022/07/04 12:22:37;;;;;;;2.90;1.90;;;;;;;;;;5048403;28;20236;-51
2022/07/04 12:25:05;;;;;;;2.50;1.60;;;;;;;;;;5067153;28;20563;-50
2022/07/04 12:27:32;;;;;;;2.03;1.77;;;;;;;;;;5049188;28;20207;-51
2022/07/04 12:29:59;;;;;;;1.80;1.70;;;;;;;;;;5050406;28;20213;-51
2022/07/04 12:32:46;;;;;;;2.20;1.90;;;;;;;;;;5067693;28;20164;-51
2022/07/04 12:35:32;;;;;;;2.60;1.60;;;;;;;;;;5062543;28;20551;-51
2022/07/04 12:38:05;;;;;;;4.17;2.03;;;;;;;;;;5065928;28;20560;-51
2022/07/04 12:40:32;;;;;;;2.27;1.73;;;;;;;;;;5067045;28;20200;-51
2022/07/04 12:42:59;;;;;;;2.73;1.70;;;;;;;;;;5032646;28;20224;-52
2022/07/04 12:45:26;;;;;;;1.97;1.70;;;;;;;;;;5066944;28;20183;-51
2022/07/04 12:47:54;;;;;;;2.50;1.67;;;;;;;;;;5066833;28;20158;-51
2022/07/04 12:50:27;;;;;;;2.03;1.60;;;;;;;;;;5056549;28;20215;-51
2022/07/04 12:52:53;;;;;;;1.63;1.50;;;;;;;;;;5076919;28;20185;-51
2022/07/04 12:55:19;;;;;;;1.67;1.57;;;;;;;;;;5066607;28;20174;-51
2022/07/04 12:57:45;;;;;;;2.10;2.00;;;;;;;;;;5066201;28;20167;-50
2022/07/04 13:00:12;;;;;;;1.98;1.67;;;;;;;;;;5066307;28;20893;-52
2022/07/04 13:02:38;;;;;;;1.90;1.63;;;;;;;;;;5066141;28;20267;-51
2022/07/04 13:05:05;;;;;;;1.90;1.70;;;;;;;;;;5066330;28;20201;-51
2022/07/04 13:07:31;;;;;;;1.93;1.70;;;;;;;;;;5065471;28;20239;-51
2022/07/04 13:09:57;;;;;;;2.00;1.80;;;;;;;;;;5066306;28;20583;-51
2022/07/04 13:12:27;;;;;;;1.90;1.80;;;;;;;;;;5048525;28;20634;-52
2022/07/04 13:14:55;;;;;;;2.70;1.70;;;;;;;;;;5066290;28;20165;-52
2022/07/04 13:17:21;;;;;;;2.13;2.00;;;;;;;;;;5066845;28;20177;-52
2022/07/04 13:19:48;;;;;;;2.80;2.37;;;;;;;;;;5050970;28;20277;-52
2022/07/04 13:22:14;;;;;;;2.20;1.73;;;;;;;;;;5086030;28;20231;-52
2022/07/04 13:24:40;;;;;;;1.80;1.70;;;;;;;;;;5086111;28;20713;-52
2022/07/04 13:27:06;;;;;;;2.57;1.87;;;;;;;;;;5086043;28;20192;-53
2022/07/04 13:29:32;;;;;;;3.20;2.10;;;;;;;;;;5085718;28;20174;-52
2022/07/04 13:31:59;;;;;;;2.17;1.60;;;;;;;;;;5067634;28;20209;-52
2022/07/04 13:34:25;;;;;;;2.10;1.90;;;;;;;;;;5085888;28;20651;-51
2022/07/04 13:36:54;;;;;;;2.43;1.77;;;;;;;;;;5065439;28;20158;-52
2022/07/04 13:39:21;;;;;;;2.27;1.60;;;;;;;;;;5069437;28;20211;-52
2022/07/04 13:41:47;;;;;;;2.40;2.20;;;;;;;;;;5065871;28;20755;-52
2022/07/04 13:44:15;;;;;;;2.93;1.90;;;;;;;;;;5065893;28;20158;-61
2022/07/04 13:46:42;;;;;;;3.27;1.77;;;;;;;;;;5063253;28;20179;-52
2022/07/04 13:49:08;;;;;;;2.03;1.83;;;;;;;;;;5064669;28;20410;-52
2022/07/04 13:51:36;;;;;;;2.83;1.60;;;;;;;;;;5083651;28;20218;-52
2022/07/04 13:54:02;;;;;;;2.17;1.60;;;;;;;;;;5067075;28;20162;-53
2022/07/04 13:56:28;;;;;;;3.20;1.83;;;;;;;;;;5085574;28;20537;-53
2022/07/04 13:58:55;;;;;;;1.93;1.73;;;;;;;;;;5086525;28;20541;-52
2022/07/04 14:01:21;;;;;;;3.33;2.80;;;;;;;;;;5085324;28;20175;-53
2022/07/04 14:03:48;;;;;;;1.80;1.60;;;;;;;;;;5067367;28;20197;-52
2022/07/04 14:06:14;;;;;;;2.40;1.97;;;;;;;;;;5069934;28;20313;-52
2022/07/04 14:08:41;;;;;;;2.30;2.10;;;;;;;;;;5064998;28;20162;-53
2022/07/04 14:11:07;;;;;;;2.20;2.00;;;;;;;;;;5064975;28;20267;-52
2022/07/04 14:13:33;;;;;;;3.50;2.00;;;;;;;;;;5065148;28;20170;-52
2022/07/04 14:16:00;;;;;;;2.10;1.90;;;;;;;;;;5064623;28;20278;-53
2022/07/04 14:18:26;;;;;;;2.13;1.60;;;;;;;;;;5066139;28;20162;-52
2022/07/04 14:20:52;;;;;;;2.57;2.17;;;;;;;;;;5059788;28;20222;-53
2022/07/04 14:23:39;;;;;;;3.60;3.40;;;;;;;;;;5084861;28;20234;-53
2022/07/04 14:26:05;;;;;;;2.57;1.90;;;;;;;;;;5085314;28;20272;-52
2022/07/04 14:28:31;;;;;;;2.00;1.90;;;;;;;;;;5085987;28;20189;-52
2022/07/04 14:30:57;;;;;;;1.90;1.80;;;;;;;;;;5054103;28;20185;-52
2022/07/04 14:33:24;;;;;;;3.87;1.83;;;;;;;;;;5065521;28;20167;-62
2022/07/04 14:35:50;;;;;;;2.80;2.10;;;;;;;;;;5047587;28;20756;-53
2022/07/04 14:38:16;;;;;;;2.63;1.80;;;;;;;;;;5064608;28;20177;-52
2022/07/04 14:40:48;;;;;;;2.33;1.80;;;;;;;;;;5047114;28;20207;-52
2022/07/04 14:43:15;;;;;;;3.07;2.07;;;;;;;;;;5048721;28;20166;-51
2022/07/04 14:45:42;;;;;;;3.10;1.80;;;;;;;;;;5069277;28;20178;-51
2022/07/04 14:48:08;;;;;;;2.53;2.23;;;;;;;;;;5069264;28;20228;-51
2022/07/04 14:50:35;;;;;;;2.10;1.90;;;;;;;;;;5060460;28;20210;-52
2022/07/04 14:53:01;;;;;;;2.10;1.73;;;;;;;;;;5059459;28;20195;-50
2022/07/04 14:55:27;;;;;;;4.43;2.27;;;;;;;;;;5069007;28;20526;-52
2022/07/04 14:57:53;;;;;;;2.53;2.10;;;;;;;;;;5068804;28;20178;-52
2022/07/04 15:00:19;;;;;;;2.13;1.73;;;;;;;;;;5068960;28;20703;-52
2022/07/04 15:02:46;;;;;;;3.27;1.53;;;;;;;;;;5051059;28;20190;-51
2022/07/04 15:05:13;;;;;;;4.03;1.80;;;;;;;;;;5050831;28;20298;-51